Tetide — IVTN — position and weather

sailwx.info

Track history (hours):
 
Tides and Currents Weather Stations Pressure Air Temp Water Temp Dewpoint Dewpoint Depression Visibility Wind Speed Wind Dir Waves Ship Positions

Tetide

Last reported at 2014-Aug-19 21:19 UTC. Time now 2014-Aug-22 13:48 UTC.
Position N 41°15' E 013°37'.

Length 70 m; draft 3.6 m.

Type: Passenger vessel. MMSI: 247043100.

Date/timePositionNaut miles runAvg speedWind from/ knotsBaromVisibWave heightAir tempDewpointWater temp
2014-Aug-19 21:19N 41°15' E 013°37'0 0.0
2014-Aug-19 20:33N 41°15' E 013°37'0 0.0
2014-Aug-19 19:04N 41°15' E 013°37'17 6.7
2014-Aug-19 16:33N 40°59' E 013°31'1 0.2
2014-Aug-19 08:10N 41°00' E 013°31'  
2014-Aug-13 20:33N 41°15' E 013°37'0 0.0
2014-Aug-13 19:33N 41°15' E 013°37'0 0.0
2014-Aug-13 18:31N 41°15' E 013°37'2 2.5
2014-Aug-13 17:32N 41°13' E 013°36'18 2.0
2014-Aug-13 08:33N 40°56' E 013°28'1414.2
2014-Aug-13 07:33N 41°09' E 013°34'6 1.0
2014-Aug-13 01:28N 41°15' E 013°37'0 0.0
2014-Aug-13 00:27N 41°15' E 013°37'0 0.0
2014-Aug-12 23:33N 41°15' E 013°37'0 0.0
2014-Aug-12 21:33N 41°15' E 013°37'0 0.0
2014-Aug-12 20:12N 41°15' E 013°37'0 0.0
2014-Aug-12 19:31N 41°15' E 013°37'0 0.0
2014-Aug-12 18:33N 41°15' E 013°37'3 2.9
2014-Aug-12 17:33N 41°12' E 013°37'1514.5
2014-Aug-12 16:33N 40°59' E 013°31'17 1.7
2014-Aug-12 06:20N 41°15' E 013°37'0 0.0
2014-Aug-12 03:21N 41°15' E 013°37'0 0.0
2014-Aug-12 02:33N 41°15' E 013°37'0 0.0
2014-Aug-12 01:33N 41°15' E 013°37'0 0.0
2014-Aug-12 00:33N 41°15' E 013°37'0 0.0
2014-Aug-11 23:33N 41°15' E 013°37'0 0.0
2014-Aug-11 22:33N 41°15' E 013°37'0 0.0
2014-Aug-11 21:33N 41°15' E 013°37'0 0.0
2014-Aug-11 20:33N 41°15' E 013°37'0 0.0
2014-Aug-11 19:33N 41°15' E 013°37'0 0.0
2014-Aug-11 18:33N 41°15' E 013°37'2 2.2
2014-Aug-11 17:33N 41°13' E 013°37'1514.9
2014-Aug-11 16:33N 40°59' E 013°31'12 5.1
2014-Aug-11 14:16N 40°48' E 013°26'0 0.0
2014-Aug-11 11:07N 40°48' E 013°26'0 0.0
2014-Aug-11 10:10N 40°48' E 013°26'0 0.0
2014-Aug-11 09:24N 40°48' E 013°26'1213.7
2014-Aug-11 08:33N 40°59' E 013°30'1514.7
2014-Aug-11 07:33N 41°13' E 013°36'2 2.3
2014-Aug-11 06:34N 41°15' E 013°37'0 0.0
2014-Aug-11 05:34N 41°15' E 013°37'0 0.0
2014-Aug-11 04:33N 41°15' E 013°37'0 0.0
2014-Aug-11 03:34N 41°15' E 013°37'0 0.0
2014-Aug-11 02:33N 41°15' E 013°37'0 0.0
2014-Aug-11 01:34N 41°15' E 013°37'0 0.0
2014-Aug-11 00:34N 41°15' E 013°37'0 0.0
2014-Aug-10 23:18N 41°15' E 013°37'0 0.0
2014-Aug-10 22:34N 41°15' E 013°37'0 0.0
2014-Aug-10 21:34N 41°15' E 013°37'0 0.0
2014-Aug-10 20:34N 41°15' E 013°37'0 0.0
2014-Aug-10 19:33N 41°15' E 013°37'0 0.0
2014-Aug-10 18:34N 41°15' E 013°37'3 2.5
2014-Aug-10 17:33N 41°13' E 013°37'1514.7
2014-Aug-10 16:33N 40°59' E 013°31'11 3.8
2014-Aug-10 13:32N 40°48' E 013°26'0 0.0
2014-Aug-10 11:33N 40°48' E 013°26'10 3.1
2014-Aug-10 08:31N 40°57' E 013°29'19 9.0
2014-Aug-10 06:24N 41°15' E 013°37'0 0.0
2014-Aug-10 05:33N 41°15' E 013°37'0 0.0
2014-Aug-10 04:09N 41°15' E 013°37'0 0.0
2014-Aug-10 03:26N 41°15' E 013°37'0 0.0
2014-Aug-10 02:32N 41°15' E 013°37'0 0.0
2014-Aug-10 01:18N 41°15' E 013°37'0 0.0
2014-Aug-10 00:32N 41°15' E 013°37'0 0.0
2014-Aug-09 23:33N 41°15' E 013°37'0 0.0
2014-Aug-09 22:33N 41°15' E 013°37'0 0.0
2014-Aug-09 21:33N 41°15' E 013°37'  
Track history (hours):
 
Tides and Currents Weather Stations Pressure Air Temp Water Temp Dewpoint Dewpoint Depression Visibility Wind Speed Wind Dir Waves Ship Positions

Tetide

Last reported at 2014-Aug-19 21:19 UTC. Time now 2014-Aug-22 13:48 UTC.
Position N 41°15' E 013°37'.

Length 70 m; draft 3.6 m.

Type: Passenger vessel. MMSI: 247043100.

Date/timePositionNaut miles runAvg speedWind from/ knotsBaromVisibWave heightAir tempDewpointWater temp
2014-Aug-19 21:19N 41°15' E 013°37'0 0.0
2014-Aug-19 20:33N 41°15' E 013°37'0 0.0
2014-Aug-19 19:04N 41°15' E 013°37'17 6.7
2014-Aug-19 16:33N 40°59' E 013°31'1 0.2
2014-Aug-19 08:10N 41°00' E 013°31'  
2014-Aug-13 20:33N 41°15' E 013°37'0 0.0
2014-Aug-13 19:33N 41°15' E 013°37'0 0.0
2014-Aug-13 18:31N 41°15' E 013°37'2 2.5
2014-Aug-13 17:32N 41°13' E 013°36'18 2.0
2014-Aug-13 08:33N 40°56' E 013°28'1414.2
2014-Aug-13 07:33N 41°09' E 013°34'6 1.0
2014-Aug-13 01:28N 41°15' E 013°37'0 0.0
2014-Aug-13 00:27N 41°15' E 013°37'0 0.0
2014-Aug-12 23:33N 41°15' E 013°37'0 0.0
2014-Aug-12 21:33N 41°15' E 013°37'0 0.0
2014-Aug-12 20:12N 41°15' E 013°37'0 0.0
2014-Aug-12 19:31N 41°15' E 013°37'0 0.0
2014-Aug-12 18:33N 41°15' E 013°37'3 2.9
2014-Aug-12 17:33N 41°12' E 013°37'1514.5
2014-Aug-12 16:33N 40°59' E 013°31'17 1.7
2014-Aug-12 06:20N 41°15' E 013°37'0 0.0
2014-Aug-12 03:21N 41°15' E 013°37'0 0.0
2014-Aug-12 02:33N 41°15' E 013°37'0 0.0
2014-Aug-12 01:33N 41°15' E 013°37'0 0.0
2014-Aug-12 00:33N 41°15' E 013°37'0 0.0
2014-Aug-11 23:33N 41°15' E 013°37'0 0.0
2014-Aug-11 22:33N 41°15' E 013°37'0 0.0
2014-Aug-11 21:33N 41°15' E 013°37'0 0.0
2014-Aug-11 20:33N 41°15' E 013°37'0 0.0
2014-Aug-11 19:33N 41°15' E 013°37'0 0.0
2014-Aug-11 18:33N 41°15' E 013°37'2 2.2
2014-Aug-11 17:33N 41°13' E 013°37'1514.9
2014-Aug-11 16:33N 40°59' E 013°31'12 5.1
2014-Aug-11 14:16N 40°48' E 013°26'0 0.0
2014-Aug-11 11:07N 40°48' E 013°26'0 0.0
2014-Aug-11 10:10N 40°48' E 013°26'0 0.0
2014-Aug-11 09:24N 40°48' E 013°26'1213.7
2014-Aug-11 08:33N 40°59' E 013°30'1514.7
2014-Aug-11 07:33N 41°13' E 013°36'2 2.3
2014-Aug-11 06:34N 41°15' E 013°37'0 0.0
2014-Aug-11 05:34N 41°15' E 013°37'0 0.0
2014-Aug-11 04:33N 41°15' E 013°37'0 0.0
2014-Aug-11 03:34N 41°15' E 013°37'0 0.0
2014-Aug-11 02:33N 41°15' E 013°37'0 0.0
2014-Aug-11 01:34N 41°15' E 013°37'0 0.0
2014-Aug-11 00:34N 41°15' E 013°37'0 0.0
2014-Aug-10 23:18N 41°15' E 013°37'0 0.0
2014-Aug-10 22:34N 41°15' E 013°37'0 0.0
2014-Aug-10 21:34N 41°15' E 013°37'0 0.0
2014-Aug-10 20:34N 41°15' E 013°37'0 0.0
2014-Aug-10 19:33N 41°15' E 013°37'0 0.0
2014-Aug-10 18:34N 41°15' E 013°37'3 2.5
2014-Aug-10 17:33N 41°13' E 013°37'1514.7
2014-Aug-10 16:33N 40°59' E 013°31'11 3.8
2014-Aug-10 13:32N 40°48' E 013°26'0 0.0
2014-Aug-10 11:33N 40°48' E 013°26'10 3.1
2014-Aug-10 08:31N 40°57' E 013°29'19 9.0
2014-Aug-10 06:24N 41°15' E 013°37'0 0.0
2014-Aug-10 05:33N 41°15' E 013°37'0 0.0
2014-Aug-10 04:09N 41°15' E 013°37'0 0.0
2014-Aug-10 03:26N 41°15' E 013°37'0 0.0
2014-Aug-10 02:32N 41°15' E 013°37'0 0.0
2014-Aug-10 01:18N 41°15' E 013°37'0 0.0
2014-Aug-10 00:32N 41°15' E 013°37'0 0.0
2014-Aug-09 23:33N 41°15' E 013°37'0 0.0
2014-Aug-09 22:33N 41°15' E 013°37'0 0.0
2014-Aug-09 21:33N 41°15' E 013°37'  

Dump ship's entire track history